Wetterdaten: Woche 10.07.17 - 16.07.17 (KW28)
Datum Zeit Temperatur Luftfeuchte Luftdruck Niederschlag Windrichtung Sonnenschein Solar Wind
10.07.2017 00:00 17,2 C 97 % 1008,4 hPa 0,0 l/m N 0,00 h 0 W/m 0,9 km/h (0 Bft)
10.07.2017 01:00 16,5 C 97 % 1008,0 hPa 0,0 l/m NW 0,00 h 0 W/m 0,3 km/h (0 Bft)
10.07.2017 02:00 16,3 C 98 % 1008,0 hPa 0,0 l/m W-NW 0,00 h 0 W/m 2,4 km/h (1 Bft)
10.07.2017 03:00 16,2 C 98 % 1007,7 hPa 0,0 l/m W 0,00 h 0 W/m 5,2 km/h (1 Bft)
10.07.2017 04:00 16,2 C 99 % 1007,5 hPa 0,0 l/m W-SW 0,00 h 0 W/m 5,9 km/h (2 Bft)
10.07.2017 05:00 16,5 C 99 % 1007,6 hPa 0,4 l/m S-SW 0,00 h 8 W/m 6,3 km/h (2 Bft)
10.07.2017 06:00 16,7 C 99 % 1007,4 hPa 0,2 l/m S-SW 0,00 h 9 W/m 4,8 km/h (1 Bft)
10.07.2017 07:00 16,6 C 99 % 1007,8 hPa 0,0 l/m SW 0,00 h 41 W/m 9,9 km/h (2 Bft)
10.07.2017 08:00 17,1 C 99 % 1008,0 hPa 0,0 l/m SW 0,00 h 127 W/m 8,7 km/h (2 Bft)
10.07.2017 09:00 18,2 C 98 % 1008,3 hPa 0,0 l/m SW 0,08 h 190 W/m 15,0 km/h (3 Bft)
10.07.2017 10:00 18,9 C 97 % 1008,3 hPa 0,2 l/m SW 0,08 h 279 W/m 18,2 km/h (3 Bft)
10.07.2017 11:00 21,0 C 89 % 1008,3 hPa 0,0 l/m SW 0,75 h 625 W/m 23,5 km/h (4 Bft)
10.07.2017 12:00 21,9 C 82 % 1008,3 hPa 0,0 l/m W 0,75 h 668 W/m 26,1 km/h (4 Bft)
10.07.2017 13:00 22,0 C 80 % 1008,3 hPa 0,0 l/m W-SW 0,58 h 464 W/m 22,8 km/h (4 Bft)
10.07.2017 14:00 22,7 C 77 % 1008,1 hPa 0,0 l/m W-SW 0,58 h 494 W/m 24,4 km/h (4 Bft)
10.07.2017 15:00 23,6 C 72 % 1007,9 hPa 0,0 l/m SW 0,75 h 759 W/m 26,7 km/h (4 Bft)
10.07.2017 16:00 24,3 C 69 % 1007,5 hPa 0,0 l/m W-SW 0,83 h 600 W/m 24,7 km/h (4 Bft)
10.07.2017 17:00 24,1 C 67 % 1007,7 hPa 0,0 l/m W-SW 0,50 h 341 W/m 23,3 km/h (4 Bft)
10.07.2017 18:00 22,7 C 72 % 1007,6 hPa 0,0 l/m W 0,25 h 216 W/m 13,3 km/h (3 Bft)
10.07.2017 19:00 22,3 C 68 % 1007,9 hPa 0,0 l/m W-NW 0,50 h 165 W/m 13,0 km/h (3 Bft)
10.07.2017 20:00 20,1 C 75 % 1008,2 hPa 0,0 l/m W-NW 0,00 h 43 W/m 8,2 km/h (2 Bft)
10.07.2017 21:00 18,9 C 81 % 1008,6 hPa 0,0 l/m N 0,00 h 9 W/m 1,1 km/h (0 Bft)
10.07.2017 22:00 18,5 C 87 % 1009,3 hPa 0,2 l/m S-SW 0,00 h 0 W/m 5,5 km/h (1 Bft)
10.07.2017 23:00 17,1 C 93 % 1010,8 hPa 13,0 l/m W-NW 0,00 h 0 W/m 23,7 km/h (4 Bft)
11.07.2017 00:00 14,9 C 96 % 1010,9 hPa 2,2 l/m S-SW 0,00 h 0 W/m 6,4 km/h (2 Bft)
11.07.2017 01:00 15,1 C 97 % 1011,1 hPa 0,0 l/m SW 0,00 h 0 W/m 17,8 km/h (3 Bft)
11.07.2017 02:00 15,0 C 98 % 1010,9 hPa 0,0 l/m SW 0,00 h 0 W/m 14,9 km/h (3 Bft)
11.07.2017 03:00 14,7 C 98 % 1011,0 hPa 0,2 l/m W-SW 0,00 h 0 W/m 18,6 km/h (3 Bft)
11.07.2017 04:00 14,3 C 97 % 1011,1 hPa 0,0 l/m W-SW 0,00 h 0 W/m 23,8 km/h (4 Bft)
11.07.2017 05:00 14,1 C 96 % 1011,4 hPa 0,0 l/m W-SW 0,00 h 8 W/m 21,7 km/h (4 Bft)
11.07.2017 06:00 14,1 C 96 % 1011,9 hPa 0,0 l/m W-SW 0,42 h 66 W/m 16,9 km/h (3 Bft)
11.07.2017 07:00 15,0 C 96 % 1012,0 hPa 0,0 l/m SW 0,58 h 198 W/m 12,9 km/h (3 Bft)
11.07.2017 08:00 16,8 C 93 % 1012,2 hPa 0,0 l/m SW 1,00 h 413 W/m 16,5 km/h (3 Bft)
11.07.2017 09:00 18,1 C 86 % 1012,5 hPa 0,0 l/m W-SW 0,58 h 419 W/m 16,9 km/h (3 Bft)
11.07.2017 10:00 18,9 C 82 % 1012,7 hPa 0,0 l/m W 0,75 h 506 W/m 14,5 km/h (3 Bft)
11.07.2017 11:00 19,8 C 76 % 1012,7 hPa 0,0 l/m SW 0,75 h 511 W/m 14,8 km/h (3 Bft)
11.07.2017 12:00 20,6 C 73 % 1012,6 hPa 0,0 l/m W-SW 0,33 h 498 W/m 16,4 km/h (3 Bft)
11.07.2017 13:00 18,7 C 84 % 1012,6 hPa 3,4 l/m W-SW 0,17 h 270 W/m 12,7 km/h (3 Bft)
11.07.2017 14:00 20,4 C 83 % 1012,3 hPa 0,0 l/m W 0,83 h 799 W/m 12,8 km/h (3 Bft)
11.07.2017 15:00 21,2 C 73 % 1012,1 hPa 0,0 l/m NW 0,67 h 551 W/m 11,7 km/h (2 Bft)
11.07.2017 16:00 21,0 C 72 % 1011,8 hPa 0,0 l/m NW 0,08 h 338 W/m 8,7 km/h (2 Bft)
11.07.2017 17:00 21,4 C 71 % 1011,5 hPa 0,0 l/m N-NW 0,33 h 297 W/m 4,1 km/h (1 Bft)
11.07.2017 18:00 21,0 C 72 % 1011,4 hPa 0,0 l/m W-SW 0,17 h 186 W/m 8,6 km/h (2 Bft)
11.07.2017 19:00 20,1 C 71 % 1011,7 hPa 0,0 l/m W 0,00 h 95 W/m 12,0 km/h (2 Bft)
11.07.2017 20:00 18,8 C 75 % 1012,1 hPa 0,0 l/m W-SW 0,00 h 20 W/m 12,0 km/h (2 Bft)
11.07.2017 21:00 17,7 C 82 % 1012,6 hPa 0,0 l/m SW 0,00 h 7 W/m 8,1 km/h (2 Bft)
11.07.2017 22:00 16,6 C 89 % 1012,9 hPa 0,0 l/m SW 0,00 h 0 W/m 11,4 km/h (2 Bft)
11.07.2017 23:00 16,1 C 91 % 1013,1 hPa 0,0 l/m SW 0,00 h 0 W/m 11,8 km/h (2 Bft)
12.07.2017 00:00 15,6 C 93 % 1013,1 hPa 0,0 l/m SW 0,00 h 0 W/m 3,9 km/h (1 Bft)
12.07.2017 01:00 15,8 C 94 % 1012,7 hPa 0,0 l/m SW 0,00 h 0 W/m 1,7 km/h (1 Bft)
12.07.2017 02:00 16,0 C 95 % 1012,3 hPa 0,0 l/m N 0,00 h 0 W/m 0,3 km/h (0 Bft)
12.07.2017 03:00 16,0 C 95 % 1011,9 hPa 0,0 l/m N 0,00 h 0 W/m 0,3 km/h (0 Bft)
12.07.2017 04:00 16,2 C 96 % 1011,3 hPa 0,0 l/m N 0,00 h 0 W/m 0,0 km/h (0 Bft)
12.07.2017 05:00 16,3 C 96 % 1011,3 hPa 0,4 l/m SW 0,00 h 6 W/m 9,2 km/h (2 Bft)
12.07.2017 06:00 16,3 C 97 % 1011,0 hPa 0,0 l/m SW 0,00 h 18 W/m 6,4 km/h (2 Bft)
12.07.2017 07:00 16,3 C 97 % 1010,8 hPa 0,0 l/m SW 0,00 h 47 W/m 13,6 km/h (3 Bft)
12.07.2017 08:00 16,6 C 98 % 1010,9 hPa 0,0 l/m SW 0,00 h 102 W/m 15,4 km/h (3 Bft)
12.07.2017 09:00 17,4 C 97 % 1011,0 hPa 0,0 l/m S-SW 0,08 h 199 W/m 13,8 km/h (3 Bft)
12.07.2017 10:00 18,6 C 93 % 1010,6 hPa 0,0 l/m SW 0,00 h 271 W/m 21,0 km/h (4 Bft)
12.07.2017 11:00 19,0 C 86 % 1010,9 hPa 0,0 l/m W-SW 0,17 h 244 W/m 19,4 km/h (3 Bft)
12.07.2017 12:00 20,9 C 78 % 1010,5 hPa 0,0 l/m W-SW 0,75 h 635 W/m 29,8 km/h (5 Bft)
12.07.2017 13:00 22,0 C 73 % 1010,2 hPa 0,0 l/m W-SW 0,50 h 504 W/m 30,7 km/h (5 Bft)
12.07.2017 14:00 23,3 C 66 % 1009,8 hPa 0,0 l/m W-SW 0,83 h 787 W/m 31,0 km/h (5 Bft)
12.07.2017 15:00 23,3 C 63 % 1009,9 hPa 0,0 l/m W 0,17 h 441 W/m 31,1 km/h (5 Bft)
12.07.2017 16:00 23,9 C 62 % 1010,1 hPa 0,0 l/m W 0,58 h 527 W/m 29,6 km/h (5 Bft)
12.07.2017 17:00 24,4 C 57 % 1010,3 hPa 0,0 l/m W-SW 0,67 h 438 W/m 37,2 km/h (5 Bft)
12.07.2017 18:00 24,3 C 54 % 1010,6 hPa 0,0 l/m W 0,67 h 302 W/m 28,8 km/h (5 Bft)
12.07.2017 19:00 20,6 C 71 % 1011,9 hPa 0,4 l/m W-NW 0,00 h 60 W/m 24,4 km/h (4 Bft)
12.07.2017 20:00 18,4 C 84 % 1013,6 hPa 2,2 l/m W-NW 0,00 h 14 W/m 25,6 km/h (4 Bft)
12.07.2017 21:00 16,3 C 93 % 1014,6 hPa 1,0 l/m W 0,00 h 7 W/m 15,3 km/h (3 Bft)
12.07.2017 22:00 16,3 C 94 % 1015,7 hPa 0,4 l/m W-NW 0,00 h 0 W/m 16,0 km/h (3 Bft)
12.07.2017 23:00 15,8 C 95 % 1016,1 hPa 0,2 l/m W 0,00 h 0 W/m 8,7 km/h (2 Bft)
13.07.2017 00:00 15,6 C 95 % 1016,4 hPa 0,0 l/m W-NW 0,00 h 0 W/m 5,4 km/h (1 Bft)
13.07.2017 01:00 15,2 C 96 % 1016,7 hPa 0,0 l/m W-NW 0,00 h 0 W/m 3,1 km/h (1 Bft)
13.07.2017 02:00 15,0 C 95 % 1017,1 hPa 0,0 l/m N-NW 0,00 h 0 W/m 1,2 km/h (1 Bft)
13.07.2017 03:00 14,7 C 93 % 1017,5 hPa 0,0 l/m N-NW 0,00 h 0 W/m 3,6 km/h (1 Bft)
13.07.2017 04:00 14,3 C 93 % 1017,8 hPa 0,0 l/m N 0,00 h 0 W/m 4,4 km/h (1 Bft)
13.07.2017 05:00 13,8 C 93 % 1018,3 hPa 0,0 l/m N 0,17 h 12 W/m 7,1 km/h (2 Bft)
13.07.2017 06:00 13,3 C 93 % 1018,4 hPa 0,0 l/m N 0,17 h 53 W/m 0,3 km/h (0 Bft)
13.07.2017 07:00 14,0 C 91 % 1018,7 hPa 0,0 l/m N-NO 0,67 h 197 W/m 6,6 km/h (2 Bft)
13.07.2017 08:00 14,8 C 86 % 1018,9 hPa 0,0 l/m O-NO 0,58 h 303 W/m 9,8 km/h (2 Bft)
13.07.2017 09:00 15,4 C 83 % 1019,0 hPa 0,0 l/m NO 0,42 h 350 W/m 8,3 km/h (2 Bft)
13.07.2017 10:00 16,5 C 77 % 1018,9 hPa 0,0 l/m NO 0,33 h 381 W/m 10,3 km/h (2 Bft)
13.07.2017 11:00 18,0 C 70 % 1018,7 hPa 0,0 l/m NO 0,75 h 879 W/m 11,0 km/h (2 Bft)
13.07.2017 12:00 18,3 C 68 % 1018,5 hPa 0,0 l/m O 0,25 h 472 W/m 10,2 km/h (2 Bft)
13.07.2017 13:00 19,5 C 64 % 1018,2 hPa 0,0 l/m O 0,42 h 624 W/m 7,9 km/h (2 Bft)
13.07.2017 14:00 20,9 C 60 % 1017,4 hPa 0,0 l/m NO 0,83 h 798 W/m 9,5 km/h (2 Bft)
13.07.2017 15:00 21,8 C 56 % 1016,8 hPa 0,0 l/m NO 0,92 h 777 W/m 10,3 km/h (2 Bft)
13.07.2017 16:00 22,1 C 55 % 1016,3 hPa 0,0 l/m NO 0,67 h 547 W/m 8,0 km/h (2 Bft)
13.07.2017 17:00 22,8 C 53 % 1015,7 hPa 0,0 l/m O-SO 1,00 h 611 W/m 9,7 km/h (2 Bft)
13.07.2017 18:00 22,7 C 53 % 1015,4 hPa 0,0 l/m O-SO 1,00 h 371 W/m 9,0 km/h (2 Bft)
13.07.2017 19:00 21,5 C 55 % 1015,3 hPa 0,0 l/m O 0,58 h 143 W/m 7,8 km/h (2 Bft)
13.07.2017 20:00 19,4 C 68 % 1015,2 hPa 0,0 l/m N 0,08 h 33 W/m 1,2 km/h (1 Bft)
13.07.2017 21:00 16,3 C 82 % 1015,3 hPa 0,0 l/m N 0,00 h 6 W/m 0,0 km/h (0 Bft)
13.07.2017 22:00 15,1 C 87 % 1015,4 hPa 0,0 l/m N 0,00 h 0 W/m 0,1 km/h (0 Bft)
13.07.2017 23:00 14,4 C 89 % 1015,2 hPa 0,0 l/m N 0,00 h 0 W/m 0,0 km/h (0 Bft)
14.07.2017 00:00 14,5 C 87 % 1015,2 hPa 0,0 l/m N-NO 0,00 h 0 W/m 1,2 km/h (1 Bft)
14.07.2017 01:00 13,9 C 90 % 1014,8 hPa 0,0 l/m N 0,00 h 0 W/m 0,0 km/h (0 Bft)
14.07.2017 02:00 14,2 C 91 % 1014,4 hPa 0,0 l/m N 0,00 h 0 W/m 0,3 km/h (0 Bft)
14.07.2017 03:00 14,5 C 89 % 1014,3 hPa 0,0 l/m N-NO 0,00 h 0 W/m 2,5 km/h (1 Bft)
14.07.2017 04:00 14,5 C 90 % 1014,3 hPa 0,2 l/m N-NO 0,00 h 0 W/m 2,4 km/h (1 Bft)
14.07.2017 05:00 13,8 C 92 % 1014,6 hPa 1,8 l/m N-NO 0,00 h 5 W/m 1,7 km/h (1 Bft)
14.07.2017 06:00 13,1 C 95 % 1014,5 hPa 0,2 l/m N 0,00 h 26 W/m 0,0 km/h (0 Bft)
14.07.2017 07:00 13,2 C 96 % 1014,5 hPa 0,0 l/m N 0,00 h 45 W/m 1,3 km/h (1 Bft)
14.07.2017 08:00 13,9 C 96 % 1014,6 hPa 0,0 l/m S-SW 0,00 h 175 W/m 8,9 km/h (2 Bft)
14.07.2017 09:00 15,5 C 93 % 1014,9 hPa 0,0 l/m S-SW 0,42 h 336 W/m 10,0 km/h (2 Bft)
14.07.2017 10:00 18,0 C 84 % 1014,7 hPa 0,0 l/m SW 0,83 h 548 W/m 13,2 km/h (3 Bft)
14.07.2017 11:00 18,5 C 75 % 1014,7 hPa 0,0 l/m SW 0,33 h 320 W/m 11,1 km/h (2 Bft)
14.07.2017 12:00 18,1 C 74 % 1014,8 hPa 0,0 l/m W 0,00 h 237 W/m 9,1 km/h (2 Bft)
14.07.2017 13:00 17,2 C 78 % 1014,9 hPa 0,0 l/m N 0,50 h 672 W/m 17,2 km/h (3 Bft)
14.07.2017 14:00 19,2 C 69 % 1014,3 hPa 0,0 l/m N-NO 0,75 h 772 W/m 10,7 km/h (2 Bft)
14.07.2017 15:00 20,4 C 66 % 1013,8 hPa 0,0 l/m N-NO 0,50 h 607 W/m 8,7 km/h (2 Bft)
14.07.2017 16:00 21,2 C 64 % 1013,2 hPa 0,0 l/m W-SW 0,25 h 324 W/m 11,0 km/h (2 Bft)
14.07.2017 17:00 19,0 C 78 % 1013,6 hPa 0,0 l/m W-SW 0,08 h 177 W/m 18,0 km/h (3 Bft)
14.07.2017 18:00 18,8 C 80 % 1013,8 hPa 0,0 l/m SW 0,42 h 237 W/m 15,0 km/h (3 Bft)
14.07.2017 19:00 17,7 C 76 % 1014,4 hPa 0,0 l/m W-NW 0,33 h 116 W/m 11,2 km/h (2 Bft)
14.07.2017 20:00 17,5 C 76 % 1014,8 hPa 0,0 l/m W-NW 0,92 h 67 W/m 4,7 km/h (1 Bft)
14.07.2017 21:00 16,1 C 81 % 1015,3 hPa 0,0 l/m W-NW 0,08 h 8 W/m 5,8 km/h (2 Bft)
14.07.2017 22:00 16,0 C 72 % 1015,8 hPa 0,0 l/m W-NW 0,00 h 0 W/m 8,2 km/h (2 Bft)
14.07.2017 23:00 15,2 C 77 % 1016,2 hPa 0,0 l/m W-NW 0,00 h 0 W/m 5,1 km/h (1 Bft)
15.07.2017 00:00 14,4 C 78 % 1016,3 hPa 0,0 l/m W-NW 0,00 h 0 W/m 8,1 km/h (2 Bft)
15.07.2017 01:00 14,3 C 73 % 1016,5 hPa 0,0 l/m W 0,00 h 0 W/m 10,3 km/h (2 Bft)
15.07.2017 02:00 13,7 C 75 % 1016,6 hPa 0,0 l/m W 0,00 h 0 W/m 4,4 km/h (1 Bft)
15.07.2017 03:00 12,5 C 85 % 1017,1 hPa 0,0 l/m N 0,00 h 0 W/m 0,0 km/h (0 Bft)
15.07.2017 04:00 12,7 C 87 % 1017,6 hPa 0,0 l/m W 0,00 h 0 W/m 2,3 km/h (1 Bft)
15.07.2017 05:00 12,8 C 89 % 1017,9 hPa 0,0 l/m N 0,00 h 6 W/m 0,3 km/h (0 Bft)
15.07.2017 06:00 12,9 C 89 % 1018,3 hPa 0,0 l/m W 0,00 h 36 W/m 3,4 km/h (1 Bft)
15.07.2017 07:00 13,4 C 83 % 1018,7 hPa 0,0 l/m N-NW 0,67 h 217 W/m 8,4 km/h (2 Bft)
15.07.2017 08:00 14,4 C 80 % 1019,1 hPa 0,0 l/m N-NW 0,67 h 285 W/m 4,9 km/h (1 Bft)
15.07.2017 09:00 14,8 C 75 % 1019,6 hPa 0,0 l/m N-NW 0,25 h 315 W/m 7,8 km/h (2 Bft)
15.07.2017 10:00 16,2 C 69 % 1019,5 hPa 0,0 l/m N-NW 0,42 h 451 W/m 7,4 km/h (2 Bft)
15.07.2017 11:00 16,6 C 67 % 1019,6 hPa 0,0 l/m NO 0,17 h 381 W/m 6,3 km/h (2 Bft)
15.07.2017 12:00 17,0 C 67 % 1019,9 hPa 0,0 l/m NO 0,25 h 450 W/m 8,2 km/h (2 Bft)
15.07.2017 13:00 17,9 C 63 % 1019,8 hPa 0,0 l/m N 0,00 h 364 W/m 10,6 km/h (2 Bft)
15.07.2017 14:00 17,9 C 62 % 1020,0 hPa 0,0 l/m N 0,17 h 347 W/m 9,3 km/h (2 Bft)
15.07.2017 15:00 18,6 C 58 % 1020,1 hPa 0,0 l/m O-NO 0,17 h 432 W/m 10,5 km/h (2 Bft)
15.07.2017 16:00 18,8 C 57 % 1020,1 hPa 0,0 l/m NO 0,17 h 273 W/m 8,9 km/h (2 Bft)
15.07.2017 17:00 19,7 C 54 % 1019,9 hPa 0,0 l/m N-NO 0,83 h 593 W/m 9,4 km/h (2 Bft)
15.07.2017 18:00 20,2 C 50 % 1020,1 hPa 0,0 l/m N-NO 1,00 h 374 W/m 13,2 km/h (3 Bft)
15.07.2017 19:00 18,5 C 55 % 1020,6 hPa 0,0 l/m NO 0,00 h 102 W/m 7,5 km/h (2 Bft)
15.07.2017 20:00 17,3 C 61 % 1020,7 hPa 0,0 l/m NO 0,00 h 37 W/m 4,4 km/h (1 Bft)
15.07.2017 21:00 16,4 C 65 % 1021,3 hPa 0,0 l/m NO 0,00 h 8 W/m 2,9 km/h (1 Bft)
15.07.2017 22:00 14,4 C 76 % 1021,9 hPa 0,0 l/m N 0,00 h 0 W/m 0,0 km/h (0 Bft)
15.07.2017 23:00 13,3 C 81 % 1022,2 hPa 0,0 l/m N 0,00 h 0 W/m 0,0 km/h (0 Bft)
16.07.2017 00:00 12,4 C 85 % 1022,5 hPa 0,0 l/m N 0,00 h 0 W/m 0,0 km/h (0 Bft)
16.07.2017 01:00 12,0 C 87 % 1022,6 hPa 0,0 l/m N 0,00 h 0 W/m 0,3 km/h (0 Bft)
16.07.2017 02:00 11,8 C 87 % 1022,3 hPa 0,0 l/m N 0,00 h 0 W/m 0,0 km/h (0 Bft)
16.07.2017 03:00 11,1 C 89 % 1022,1 hPa 0,0 l/m N 0,00 h 0 W/m 0,1 km/h (0 Bft)
16.07.2017 04:00 11,2 C 90 % 1022,2 hPa 0,0 l/m N 0,00 h 0 W/m 2,5 km/h (1 Bft)
16.07.2017 05:00 11,1 C 89 % 1022,3 hPa 0,0 l/m NO 0,08 h 9 W/m 3,2 km/h (1 Bft)
16.07.2017 06:00 11,3 C 90 % 1022,5 hPa 0,0 l/m N 0,00 h 44 W/m 0,1 km/h (0 Bft)
16.07.2017 07:00 12,2 C 89 % 1023,0 hPa 0,0 l/m N 0,00 h 101 W/m 0,3 km/h (0 Bft)
16.07.2017 08:00 13,7 C 84 % 1023,3 hPa 0,0 l/m N 0,42 h 275 W/m 0,1 km/h (0 Bft)
16.07.2017 09:00 16,6 C 70 % 1023,4 hPa 0,0 l/m NO 0,92 h 500 W/m 2,9 km/h (1 Bft)
16.07.2017 10:00 18,4 C 60 % 1023,3 hPa 0,0 l/m O-NO 0,83 h 617 W/m 6,3 km/h (2 Bft)
16.07.2017 11:00 19,6 C 55 % 1023,2 hPa 0,0 l/m NW 1,00 h 738 W/m 6,6 km/h (2 Bft)
16.07.2017 12:00 20,4 C 51 % 1023,0 hPa 0,0 l/m NW 1,00 h 880 W/m 8,3 km/h (2 Bft)
16.07.2017 13:00 21,7 C 46 % 1022,4 hPa 0,0 l/m O-SO 1,00 h 890 W/m 10,3 km/h (2 Bft)
16.07.2017 14:00 22,6 C 44 % 1022,0 hPa 0,0 l/m SO 1,00 h 851 W/m 9,1 km/h (2 Bft)
16.07.2017 15:00 23,4 C 44 % 1021,6 hPa 0,0 l/m SO 0,92 h 756 W/m 8,7 km/h (2 Bft)
16.07.2017 16:00 22,6 C 47 % 1021,3 hPa 0,0 l/m SW 0,75 h 593 W/m 5,9 km/h (2 Bft)
16.07.2017 17:00 23,0 C 47 % 1020,9 hPa 0,0 l/m SW 0,75 h 382 W/m 5,3 km/h (1 Bft)
16.07.2017 18:00 23,2 C 47 % 1020,5 hPa 0,0 l/m S 1,00 h 339 W/m 5,6 km/h (1 Bft)
16.07.2017 19:00 22,3 C 52 % 1020,4 hPa 0,0 l/m S-SW 0,83 h 167 W/m 2,5 km/h (1 Bft)
16.07.2017 20:00 20,5 C 62 % 1020,4 hPa 0,0 l/m N 0,00 h 33 W/m 0,7 km/h (0 Bft)
16.07.2017 21:00 17,3 C 76 % 1020,6 hPa 0,0 l/m N 0,00 h 7 W/m 0,0 km/h (0 Bft)
16.07.2017 22:00 15,8 C 79 % 1020,8 hPa 0,0 l/m N 0,00 h 0 W/m 0,0 km/h (0 Bft)
16.07.2017 23:00 14,8 C 82 % 1020,6 hPa 0,0 l/m N 0,00 h 0 W/m 0,3 km/h (0 Bft)
Min-Datum _ 16.07.17 16.07.17 10.07.17 - - - - 10.07.17
_ Min-Zeit 03:45 13:35 06:40 - - - - 00:00
Minimum _ 10,8 C 43 % 1007,1 hPa - - - - 0,0 km/h (0 Bft)
Max-Datum _ 10.07.17 10.07.17 16.07.17 10.07.17 - 10.07.17 10.07.17 12.07.17
_ Max-Zeit 16:25 04:15 08:30 23:15 - 09:05 14:00 17:30
Maximum _ 24,8 C 99 % 1023,4 hPa 13,0 l/m - 0,08 h 1227 W/m 46,7 km/h
W (6 Bft)
Durchschnitt _ 17,5 C 79 % 1015,0 hPa #26,6 l/m SW #46:15 h 319 W/m 9,5 km/h (2 Bft)